sensor_id;sensor_type;location;lat;lon;timestamp;P1;durP1;ratioP1;P2;durP2;ratioP2
79005;SDS011;77501;51.072;3.536;2024-03-23T20:25:02;35.42;;;6.82;;
79005;SDS011;77501;51.072;3.536;2024-03-23T20:27:27;25.17;;;5.63;;
79005;SDS011;77501;51.072;3.536;2024-03-23T20:29:53;23.23;;;5.68;;
79005;SDS011;77501;51.072;3.536;2024-03-23T20:32:18;27.55;;;6.18;;
79005;SDS011;77501;51.072;3.536;2024-03-23T20:34:44;27.35;;;5.43;;
79005;SDS011;77501;51.072;3.536;2024-03-23T20:37:09;20.60;;;5.63;;
79005;SDS011;77501;51.072;3.536;2024-03-23T20:39:35;27.92;;;5.40;;
79005;SDS011;77501;51.072;3.536;2024-03-23T20:42:00;25.15;;;5.07;;
79005;SDS011;77501;51.072;3.536;2024-03-23T20:44:26;14.10;;;4.50;;
79005;SDS011;77501;51.072;3.536;2024-03-23T20:46:51;19.17;;;5.28;;
79005;SDS011;77501;51.072;3.536;2024-03-23T20:49:17;17.60;;;4.97;;
79005;SDS011;77501;51.072;3.536;2024-03-23T20:51:42;20.35;;;5.05;;
79005;SDS011;77501;51.072;3.536;2024-03-23T20:54:08;14.02;;;4.47;;
79005;SDS011;77501;51.072;3.536;2024-03-23T20:56:38;18.05;;;4.85;;
79005;SDS011;77501;51.072;3.536;2024-03-23T20:59:03;21.10;;;4.90;;
79005;SDS011;77501;51.072;3.536;2024-03-23T21:01:29;18.15;;;5.20;;
79005;SDS011;77501;51.072;3.536;2024-03-23T21:03:57;18.73;;;4.68;;
79005;SDS011;77501;51.072;3.536;2024-03-23T21:06:23;9.10;;;4.05;;
79005;SDS011;77501;51.072;3.536;2024-03-23T21:08:48;16.42;;;4.60;;
79005;SDS011;77501;51.072;3.536;2024-03-23T21:11:14;12.25;;;4.13;;
79005;SDS011;77501;51.072;3.536;2024-03-23T21:13:39;13.07;;;3.95;;
79005;SDS011;77501;51.072;3.536;2024-03-23T21:16:05;14.70;;;3.97;;
79005;SDS011;77501;51.072;3.536;2024-03-23T21:18:31;13.50;;;4.03;;
79005;SDS011;77501;51.072;3.536;2024-03-23T21:21:01;17.15;;;4.05;;
79005;SDS011;77501;51.072;3.536;2024-03-23T21:23:28;14.75;;;3.88;;
79005;SDS011;77501;51.072;3.536;2024-03-23T21:25:59;12.68;;;4.00;;
79005;SDS011;77501;51.072;3.536;2024-03-23T21:28:26;11.82;;;3.75;;
79005;SDS011;77501;51.072;3.536;2024-03-23T21:30:52;15.43;;;3.83;;
79005;SDS011;77501;51.072;3.536;2024-03-23T21:33:18;9.98;;;4.07;;
79005;SDS011;77501;51.072;3.536;2024-03-23T21:35:44;10.07;;;3.30;;
79005;SDS011;77501;51.072;3.536;2024-03-23T21:38:10;11.63;;;3.70;;
79005;SDS011;77501;51.072;3.536;2024-03-23T21:40:35;12.40;;;3.20;;
79005;SDS011;77501;51.072;3.536;2024-03-23T21:43:02;11.95;;;3.85;;
79005;SDS011;77501;51.072;3.536;2024-03-23T21:45:28;13.43;;;3.90;;
79005;SDS011;77501;51.072;3.536;2024-03-23T21:47:53;13.30;;;3.65;;
79005;SDS011;77501;51.072;3.536;2024-03-23T21:50:19;12.55;;;4.00;;
79005;SDS011;77501;51.072;3.536;2024-03-23T21:52:44;9.13;;;3.70;;
79005;SDS011;77501;51.072;3.536;2024-03-23T21:55:09;11.18;;;4.03;;
79005;SDS011;77501;51.072;3.536;2024-03-23T21:57:35;7.78;;;3.05;;
79005;SDS011;77501;51.072;3.536;2024-03-23T22:00:00;7.78;;;3.05;;
79005;SDS011;77501;51.072;3.536;2024-03-23T22:02:26;9.18;;;3.17;;
79005;SDS011;77501;51.072;3.536;2024-03-23T22:04:51;7.13;;;3.45;;
79005;SDS011;77501;51.072;3.536;2024-03-23T22:07:17;8.35;;;3.90;;
79005;SDS011;77501;51.072;3.536;2024-03-23T22:09:42;9.02;;;3.47;;
79005;SDS011;77501;51.072;3.536;2024-03-23T22:12:07;8.10;;;3.13;;
79005;SDS011;77501;51.072;3.536;2024-03-23T22:14:33;9.90;;;3.50;;
79005;SDS011;77501;51.072;3.536;2024-03-23T22:16:58;10.10;;;3.45;;
79005;SDS011;77501;51.072;3.536;2024-03-23T22:19:25;6.18;;;2.80;;
79005;SDS011;77501;51.072;3.536;2024-03-23T22:21:51;11.50;;;2.70;;
79005;SDS011;77501;51.072;3.536;2024-03-23T22:24:17;6.15;;;3.28;;
79005;SDS011;77501;51.072;3.536;2024-03-23T22:26:42;7.10;;;2.78;;
79005;SDS011;77501;51.072;3.536;2024-03-23T22:29:08;10.98;;;3.00;;
79005;SDS011;77501;51.072;3.536;2024-03-23T22:31:34;7.68;;;2.47;;
79005;SDS011;77501;51.072;3.536;2024-03-23T22:33:59;5.88;;;2.72;;
79005;SDS011;77501;51.072;3.536;2024-03-23T22:36:25;5.40;;;2.33;;
79005;SDS011;77501;51.072;3.536;2024-03-23T22:38:50;8.77;;;3.00;;
79005;SDS011;77501;51.072;3.536;2024-03-23T22:41:15;6.40;;;2.60;;
79005;SDS011;77501;51.072;3.536;2024-03-23T22:43:42;6.45;;;2.78;;
79005;SDS011;77501;51.072;3.536;2024-03-23T22:46:07;8.82;;;2.63;;
79005;SDS011;77501;51.072;3.536;2024-03-23T22:48:33;9.80;;;2.95;;
79005;SDS011;77501;51.072;3.536;2024-03-23T22:51:00;5.07;;;2.35;;
79005;SDS011;77501;51.072;3.536;2024-03-23T22:53:27;6.18;;;2.58;;
79005;SDS011;77501;51.072;3.536;2024-03-23T22:55:53;8.25;;;2.60;;
79005;SDS011;77501;51.072;3.536;2024-03-23T22:58:20;7.72;;;3.15;;
79005;SDS011;77501;51.072;3.536;2024-03-23T23:00:47;5.10;;;2.50;;
79005;SDS011;77501;51.072;3.536;2024-03-23T23:03:14;6.70;;;2.40;;
79005;SDS011;77501;51.072;3.536;2024-03-23T23:05:41;4.63;;;2.33;;
79005;SDS011;77501;51.072;3.536;2024-03-23T23:08:07;5.30;;;2.35;;
79005;SDS011;77501;51.072;3.536;2024-03-23T23:10:34;4.18;;;2.35;;
79005;SDS011;77501;51.072;3.536;2024-03-23T23:13:00;10.85;;;2.63;;
79005;SDS011;77501;51.072;3.536;2024-03-23T23:15:26;4.80;;;2.72;;
79005;SDS011;77501;51.072;3.536;2024-03-23T23:17:52;4.15;;;2.10;;
79005;SDS011;77501;51.072;3.536;2024-03-23T23:20:18;7.50;;;2.28;;
79005;SDS011;77501;51.072;3.536;2024-03-23T23:22:43;4.13;;;2.10;;
79005;SDS011;77501;51.072;3.536;2024-03-23T23:25:09;5.85;;;2.22;;
79005;SDS011;77501;51.072;3.536;2024-03-23T23:27:35;5.90;;;2.53;;
79005;SDS011;77501;51.072;3.536;2024-03-23T23:30:02;4.35;;;1.95;;
79005;SDS011;77501;51.072;3.536;2024-03-23T23:32:31;4.82;;;2.38;;
79005;SDS011;77501;51.072;3.536;2024-03-23T23:34:58;4.68;;;2.15;;
79005;SDS011;77501;51.072;3.536;2024-03-23T23:37:24;4.60;;;2.35;;
79005;SDS011;77501;51.072;3.536;2024-03-23T23:39:50;5.13;;;2.05;;
79005;SDS011;77501;51.072;3.536;2024-03-23T23:42:15;7.40;;;2.35;;
79005;SDS011;77501;51.072;3.536;2024-03-23T23:44:40;4.63;;;2.25;;
79005;SDS011;77501;51.072;3.536;2024-03-23T23:47:06;4.45;;;2.13;;
79005;SDS011;77501;51.072;3.536;2024-03-23T23:49:31;6.65;;;2.45;;
79005;SDS011;77501;51.072;3.536;2024-03-23T23:51:56;5.43;;;1.83;;
79005;SDS011;77501;51.072;3.536;2024-03-23T23:54:22;3.53;;;1.63;;
79005;SDS011;77501;51.072;3.536;2024-03-23T23:56:47;3.80;;;1.90;;
79005;SDS011;77501;51.072;3.536;2024-03-23T23:59:12;4.88;;;2.00;;
